sensor_id;sensor_type;location;lat;lon;timestamp;P1;durP1;ratioP1;P2;durP2;ratioP2
3993;SDS011;2011;48.238;13.948;2023-02-03T00:02:22;8.98;;;5.55;;
3993;SDS011;2011;48.238;13.948;2023-02-03T00:04:49;8.95;;;5.32;;
3993;SDS011;2011;48.238;13.948;2023-02-03T00:07:16;6.55;;;4.65;;
3993;SDS011;2011;48.238;13.948;2023-02-03T00:09:44;5.47;;;4.30;;
3993;SDS011;2011;48.238;13.948;2023-02-03T00:12:12;5.07;;;3.85;;
3993;SDS011;2011;48.238;13.948;2023-02-03T00:14:39;7.20;;;3.35;;
3993;SDS011;2011;48.238;13.948;2023-02-03T00:17:06;14.05;;;5.35;;
3993;SDS011;2011;48.238;13.948;2023-02-03T00:19:33;5.60;;;3.60;;
3993;SDS011;2011;48.238;13.948;2023-02-03T00:22:00;11.02;;;4.15;;
3993;SDS011;2011;48.238;13.948;2023-02-03T00:24:27;4.32;;;3.55;;
3993;SDS011;2011;48.238;13.948;2023-02-03T00:26:56;6.78;;;4.60;;
3993;SDS011;2011;48.238;13.948;2023-02-03T00:29:23;5.43;;;4.10;;
3993;SDS011;2011;48.238;13.948;2023-02-03T00:31:50;5.88;;;3.97;;
3993;SDS011;2011;48.238;13.948;2023-02-03T00:34:18;4.40;;;3.90;;
3993;SDS011;2011;48.238;13.948;2023-02-03T00:36:45;4.47;;;3.72;;
3993;SDS011;2011;48.238;13.948;2023-02-03T00:39:13;4.80;;;4.20;;
3993;SDS011;2011;48.238;13.948;2023-02-03T00:41:40;4.03;;;3.55;;
3993;SDS011;2011;48.238;13.948;2023-02-03T00:44:09;5.20;;;3.80;;
3993;SDS011;2011;48.238;13.948;2023-02-03T00:46:36;4.20;;;3.80;;
3993;SDS011;2011;48.238;13.948;2023-02-03T00:49:03;8.38;;;5.50;;
3993;SDS011;2011;48.238;13.948;2023-02-03T00:51:31;5.90;;;4.90;;
3993;SDS011;2011;48.238;13.948;2023-02-03T00:53:58;4.63;;;3.50;;
3993;SDS011;2011;48.238;13.948;2023-02-03T00:56:25;5.88;;;4.80;;
3993;SDS011;2011;48.238;13.948;2023-02-03T00:58:52;6.32;;;5.15;;
3993;SDS011;2011;48.238;13.948;2023-02-03T01:01:21;4.97;;;4.45;;
3993;SDS011;2011;48.238;13.948;2023-02-03T01:03:48;8.90;;;5.38;;
3993;SDS011;2011;48.238;13.948;2023-02-03T01:06:17;5.20;;;4.00;;
3993;SDS011;2011;48.238;13.948;2023-02-03T01:08:45;7.93;;;5.15;;
3993;SDS011;2011;48.238;13.948;2023-02-03T01:11:13;7.88;;;4.03;;
3993;SDS011;2011;48.238;13.948;2023-02-03T01:13:44;5.88;;;4.30;;
3993;SDS011;2011;48.238;13.948;2023-02-03T01:16:14;5.57;;;4.78;;
3993;SDS011;2011;48.238;13.948;2023-02-03T01:18:45;7.05;;;5.38;;
3993;SDS011;2011;48.238;13.948;2023-02-03T01:21:13;12.48;;;4.93;;
3993;SDS011;2011;48.238;13.948;2023-02-03T01:23:42;6.88;;;5.50;;
3993;SDS011;2011;48.238;13.948;2023-02-03T01:26:10;6.95;;;5.25;;
3993;SDS011;2011;48.238;13.948;2023-02-03T01:28:38;7.68;;;5.55;;
3993;SDS011;2011;48.238;13.948;2023-02-03T01:31:09;7.95;;;5.15;;
3993;SDS011;2011;48.238;13.948;2023-02-03T01:33:38;7.00;;;5.50;;
3993;SDS011;2011;48.238;13.948;2023-02-03T01:36:07;5.97;;;4.75;;
3993;SDS011;2011;48.238;13.948;2023-02-03T01:38:35;4.72;;;4.07;;
3993;SDS011;2011;48.238;13.948;2023-02-03T01:41:04;4.20;;;3.80;;
3993;SDS011;2011;48.238;13.948;2023-02-03T01:43:34;5.95;;;4.55;;
3993;SDS011;2011;48.238;13.948;2023-02-03T01:46:03;5.75;;;4.57;;
3993;SDS011;2011;48.238;13.948;2023-02-03T01:48:39;7.50;;;4.40;;
3993;SDS011;2011;48.238;13.948;2023-02-03T01:51:08;4.97;;;3.83;;
3993;SDS011;2011;48.238;13.948;2023-02-03T01:53:35;5.40;;;4.60;;
3993;SDS011;2011;48.238;13.948;2023-02-03T01:56:03;6.60;;;5.07;;
3993;SDS011;2011;48.238;13.948;2023-02-03T01:58:32;8.20;;;5.65;;
3993;SDS011;2011;48.238;13.948;2023-02-03T02:01:03;8.63;;;6.10;;
3993;SDS011;2011;48.238;13.948;2023-02-03T02:03:31;8.82;;;6.72;;
3993;SDS011;2011;48.238;13.948;2023-02-03T02:06:04;11.32;;;7.20;;
3993;SDS011;2011;48.238;13.948;2023-02-03T02:08:33;12.05;;;6.65;;
3993;SDS011;2011;48.238;13.948;2023-02-03T02:11:01;8.18;;;6.43;;
3993;SDS011;2011;48.238;13.948;2023-02-03T02:13:29;10.57;;;7.80;;
3993;SDS011;2011;48.238;13.948;2023-02-03T02:16:00;10.00;;;7.72;;
3993;SDS011;2011;48.238;13.948;2023-02-03T02:27:33;18.30;;;11.52;;
3993;SDS011;2011;48.238;13.948;2023-02-03T02:33:09;16.45;;;9.70;;
3993;SDS011;2011;48.238;13.948;2023-02-03T02:35:47;9.00;;;6.72;;
3993;SDS011;2011;48.238;13.948;2023-02-03T02:38:24;13.27;;;7.03;;
3993;SDS011;2011;48.238;13.948;2023-02-03T02:41:07;12.90;;;6.25;;
3993;SDS011;2011;48.238;13.948;2023-02-03T02:43:40;10.60;;;5.55;;
3993;SDS011;2011;48.238;13.948;2023-02-03T02:46:10;8.88;;;5.07;;
3993;SDS011;2011;48.238;13.948;2023-02-03T02:48:41;4.60;;;3.65;;
3993;SDS011;2011;48.238;13.948;2023-02-03T02:51:13;5.07;;;3.47;;
3993;SDS011;2011;48.238;13.948;2023-02-03T02:53:42;7.30;;;4.55;;
3993;SDS011;2011;48.238;13.948;2023-02-03T02:56:14;11.98;;;3.40;;
3993;SDS011;2011;48.238;13.948;2023-02-03T02:58:44;9.65;;;4.05;;
3993;SDS011;2011;48.238;13.948;2023-02-03T03:01:14;4.15;;;3.67;;
3993;SDS011;2011;48.238;13.948;2023-02-03T03:03:43;5.20;;;3.13;;
3993;SDS011;2011;48.238;13.948;2023-02-03T03:06:12;6.68;;;3.35;;
3993;SDS011;2011;48.238;13.948;2023-02-03T03:08:44;4.50;;;3.15;;
3993;SDS011;2011;48.238;13.948;2023-02-03T03:11:15;5.45;;;3.38;;
3993;SDS011;2011;48.238;13.948;2023-02-03T03:13:44;4.40;;;3.27;;
3993;SDS011;2011;48.238;13.948;2023-02-03T03:16:16;4.40;;;2.80;;
3993;SDS011;2011;48.238;13.948;2023-02-03T03:18:48;3.17;;;2.80;;
3993;SDS011;2011;48.238;13.948;2023-02-03T03:21:18;4.22;;;2.90;;
3993;SDS011;2011;48.238;13.948;2023-02-03T03:23:50;5.50;;;3.17;;
3993;SDS011;2011;48.238;13.948;2023-02-03T03:26:21;9.77;;;3.30;;
3993;SDS011;2011;48.238;13.948;2023-02-03T03:28:56;8.40;;;2.78;;
3993;SDS011;2011;48.238;13.948;2023-02-03T03:31:31;4.20;;;2.50;;
3993;SDS011;2011;48.238;13.948;2023-02-03T03:34:00;7.35;;;2.78;;
3993;SDS011;2011;48.238;13.948;2023-02-03T03:36:27;4.50;;;2.55;;
3993;SDS011;2011;48.238;13.948;2023-02-03T03:38:59;6.60;;;3.38;;
3993;SDS011;2011;48.238;13.948;2023-02-03T03:41:34;4.85;;;3.10;;
3993;SDS011;2011;48.238;13.948;2023-02-03T03:44:08;6.40;;;2.53;;
3993;SDS011;2011;48.238;13.948;2023-02-03T03:46:39;3.88;;;2.35;;
3993;SDS011;2011;48.238;13.948;2023-02-03T03:49:12;2.72;;;2.30;;
3993;SDS011;2011;48.238;13.948;2023-02-03T03:51:41;6.13;;;2.50;;
3993;SDS011;2011;48.238;13.948;2023-02-03T03:54:13;2.97;;;2.40;;
3993;SDS011;2011;48.238;13.948;2023-02-03T03:56:46;2.53;;;2.33;;
3993;SDS011;2011;48.238;13.948;2023-02-03T03:59:18;2.88;;;2.20;;
3993;SDS011;2011;48.238;13.948;2023-02-03T04:01:47;3.40;;;2.30;;
3993;SDS011;2011;48.238;13.948;2023-02-03T04:04:17;2.25;;;2.05;;
3993;SDS011;2011;48.238;13.948;2023-02-03T04:06:46;3.07;;;2.20;;
3993;SDS011;2011;48.238;13.948;2023-02-03T04:09:13;4.00;;;2.53;;
3993;SDS011;2011;48.238;13.948;2023-02-03T04:11:40;11.23;;;2.80;;
3993;SDS011;2011;48.238;13.948;2023-02-03T04:14:24;2.83;;;1.63;;
3993;SDS011;2011;48.238;13.948;2023-02-03T04:16:51;5.60;;;2.50;;
3993;SDS011;2011;48.238;13.948;2023-02-03T04:19:20;2.20;;;2.00;;
3993;SDS011;2011;48.238;13.948;2023-02-03T04:21:47;6.57;;;2.50;;
3993;SDS011;2011;48.238;13.948;2023-02-03T04:24:14;4.77;;;2.40;;
3993;SDS011;2011;48.238;13.948;2023-02-03T04:26:41;6.53;;;2.80;;
3993;SDS011;2011;48.238;13.948;2023-02-03T04:29:08;2.93;;;2.20;;
3993;SDS011;2011;48.238;13.948;2023-02-03T04:31:35;3.40;;;2.43;;
3993;SDS011;2011;48.238;13.948;2023-02-03T04:34:03;4.73;;;2.30;;
3993;SDS011;2011;48.238;13.948;2023-02-03T04:36:32;4.53;;;2.40;;
3993;SDS011;2011;48.238;13.948;2023-02-03T04:38:58;5.70;;;1.92;;
3993;SDS011;2011;48.238;13.948;2023-02-03T04:41:25;5.38;;;2.60;;
3993;SDS011;2011;48.238;13.948;2023-02-03T04:43:52;5.03;;;2.63;;
3993;SDS011;2011;48.238;13.948;2023-02-03T04:46:19;5.63;;;2.20;;
3993;SDS011;2011;48.238;13.948;2023-02-03T04:48:46;5.03;;;2.45;;
3993;SDS011;2011;48.238;13.948;2023-02-03T04:51:13;5.13;;;2.83;;
3993;SDS011;2011;48.238;13.948;2023-02-03T04:53:41;4.13;;;2.20;;
3993;SDS011;2011;48.238;13.948;2023-02-03T04:56:08;9.83;;;2.73;;
3993;SDS011;2011;48.238;13.948;2023-02-03T04:58:35;4.78;;;2.22;;
3993;SDS011;2011;48.238;13.948;2023-02-03T05:01:06;5.73;;;2.43;;
3993;SDS011;2011;48.238;13.948;2023-02-03T05:03:34;4.20;;;2.00;;
3993;SDS011;2011;48.238;13.948;2023-02-03T05:06:01;6.55;;;2.30;;
3993;SDS011;2011;48.238;13.948;2023-02-03T05:08:29;4.87;;;2.10;;
3993;SDS011;2011;48.238;13.948;2023-02-03T05:10:58;3.30;;;1.70;;
3993;SDS011;2011;48.238;13.948;2023-02-03T05:13:25;7.13;;;1.97;;
3993;SDS011;2011;48.238;13.948;2023-02-03T05:15:52;4.30;;;2.10;;
3993;SDS011;2011;48.238;13.948;2023-02-03T05:18:18;2.63;;;1.80;;
3993;SDS011;2011;48.238;13.948;2023-02-03T05:20:45;6.27;;;2.63;;
3993;SDS011;2011;48.238;13.948;2023-02-03T05:23:12;3.13;;;1.93;;
3993;SDS011;2011;48.238;13.948;2023-02-03T05:25:39;4.10;;;2.00;;
3993;SDS011;2011;48.238;13.948;2023-02-03T05:28:09;5.20;;;1.80;;
3993;SDS011;2011;48.238;13.948;2023-02-03T05:30:36;3.50;;;1.80;;
3993;SDS011;2011;48.238;13.948;2023-02-03T05:33:03;6.30;;;2.17;;
3993;SDS011;2011;48.238;13.948;2023-02-03T05:35:30;4.10;;;1.87;;
3993;SDS011;2011;48.238;13.948;2023-02-03T05:37:57;11.17;;;2.00;;
3993;SDS011;2011;48.238;13.948;2023-02-03T05:40:24;6.30;;;2.27;;
3993;SDS011;2011;48.238;13.948;2023-02-03T05:43:10;5.07;;;1.93;;
3993;SDS011;2011;48.238;13.948;2023-02-03T05:45:37;5.10;;;2.23;;
3993;SDS011;2011;48.238;13.948;2023-02-03T05:48:04;4.90;;;1.80;;
3993;SDS011;2011;48.238;13.948;2023-02-03T05:50:32;3.47;;;2.07;;
3993;SDS011;2011;48.238;13.948;2023-02-03T05:52:59;3.03;;;1.90;;
3993;SDS011;2011;48.238;13.948;2023-02-03T05:55:26;2.27;;;1.90;;
3993;SDS011;2011;48.238;13.948;2023-02-03T05:57:54;2.27;;;1.80;;
3993;SDS011;2011;48.238;13.948;2023-02-03T06:00:23;3.60;;;1.77;;
3993;SDS011;2011;48.238;13.948;2023-02-03T06:02:50;4.50;;;1.60;;
3993;SDS011;2011;48.238;13.948;2023-02-03T06:05:17;4.00;;;2.10;;
3993;SDS011;2011;48.238;13.948;2023-02-03T06:07:44;5.50;;;2.03;;
3993;SDS011;2011;48.238;13.948;2023-02-03T06:10:11;3.07;;;2.10;;
3993;SDS011;2011;48.238;13.948;2023-02-03T06:12:38;3.80;;;1.90;;
3993;SDS011;2011;48.238;13.948;2023-02-03T06:15:05;5.93;;;2.20;;
3993;SDS011;2011;48.238;13.948;2023-02-03T06:17:34;5.70;;;1.50;;
3993;SDS011;2011;48.238;13.948;2023-02-03T06:20:01;3.37;;;1.67;;
3993;SDS011;2011;48.238;13.948;2023-02-03T06:22:28;2.40;;;1.47;;
3993;SDS011;2011;48.238;13.948;2023-02-03T06:24:55;3.33;;;1.40;;
3993;SDS011;2011;48.238;13.948;2023-02-03T06:27:22;3.23;;;1.30;;
3993;SDS011;2011;48.238;13.948;2023-02-03T06:29:49;2.17;;;1.33;;
3993;SDS011;2011;48.238;13.948;2023-02-03T06:32:16;3.33;;;1.37;;
3993;SDS011;2011;48.238;13.948;2023-02-03T06:34:44;3.77;;;1.50;;
3993;SDS011;2011;48.238;13.948;2023-02-03T06:37:11;3.40;;;1.50;;
3993;SDS011;2011;48.238;13.948;2023-02-03T06:39:38;6.20;;;1.97;;
3993;SDS011;2011;48.238;13.948;2023-02-03T06:42:05;5.80;;;1.93;;
3993;SDS011;2011;48.238;13.948;2023-02-03T06:44:32;4.70;;;1.60;;
3993;SDS011;2011;48.238;13.948;2023-02-03T06:46:59;3.53;;;1.60;;
3993;SDS011;2011;48.238;13.948;2023-02-03T06:49:27;2.50;;;1.67;;
3993;SDS011;2011;48.238;13.948;2023-02-03T06:51:55;8.60;;;1.70;;
3993;SDS011;2011;48.238;13.948;2023-02-03T06:54:22;3.23;;;1.63;;
3993;SDS011;2011;48.238;13.948;2023-02-03T06:56:49;2.87;;;1.50;;
3993;SDS011;2011;48.238;13.948;2023-02-03T06:59:16;1.50;;;1.17;;
3993;SDS011;2011;48.238;13.948;2023-02-03T07:01:43;2.03;;;1.30;;
3993;SDS011;2011;48.238;13.948;2023-02-03T07:04:10;3.27;;;1.40;;
3993;SDS011;2011;48.238;13.948;2023-02-03T07:06:36;3.00;;;1.50;;
3993;SDS011;2011;48.238;13.948;2023-02-03T07:09:05;1.20;;;1.10;;
3993;SDS011;2011;48.238;13.948;2023-02-03T07:11:32;3.60;;;1.63;;
3993;SDS011;2011;48.238;13.948;2023-02-03T07:13:59;2.20;;;1.20;;
3993;SDS011;2011;48.238;13.948;2023-02-03T07:16:26;4.23;;;1.50;;
3993;SDS011;2011;48.238;13.948;2023-02-03T07:18:53;6.50;;;1.73;;
3993;SDS011;2011;48.238;13.948;2023-02-03T07:21:20;3.47;;;1.50;;
3993;SDS011;2011;48.238;13.948;2023-02-03T07:23:47;3.53;;;1.50;;
3993;SDS011;2011;48.238;13.948;2023-02-03T07:26:17;2.90;;;1.20;;
3993;SDS011;2011;48.238;13.948;2023-02-03T07:28:47;2.27;;;1.40;;
3993;SDS011;2011;48.238;13.948;2023-02-03T07:31:14;5.87;;;1.50;;
3993;SDS011;2011;48.238;13.948;2023-02-03T07:33:41;5.43;;;1.63;;
3993;SDS011;2011;48.238;13.948;2023-02-03T07:36:11;2.67;;;1.40;;
3993;SDS011;2011;48.238;13.948;2023-02-03T07:38:38;4.40;;;1.20;;
3993;SDS011;2011;48.238;13.948;2023-02-03T07:41:05;5.10;;;1.70;;
3993;SDS011;2011;48.238;13.948;2023-02-03T07:43:34;5.20;;;1.40;;
3993;SDS011;2011;48.238;13.948;2023-02-03T07:46:01;1.93;;;1.20;;
3993;SDS011;2011;48.238;13.948;2023-02-03T07:48:28;1.30;;;1.10;;
3993;SDS011;2011;48.238;13.948;2023-02-03T07:50:55;2.47;;;1.40;;
3993;SDS011;2011;48.238;13.948;2023-02-03T07:53:22;1.67;;;1.10;;
3993;SDS011;2011;48.238;13.948;2023-02-03T07:55:49;4.13;;;1.27;;
3993;SDS011;2011;48.238;13.948;2023-02-03T07:58:16;1.93;;;1.33;;
3993;SDS011;2011;48.238;13.948;2023-02-03T08:00:44;3.03;;;1.50;;
3993;SDS011;2011;48.238;13.948;2023-02-03T08:03:11;2.90;;;1.40;;
3993;SDS011;2011;48.238;13.948;2023-02-03T08:05:38;1.40;;;1.20;;
3993;SDS011;2011;48.238;13.948;2023-02-03T08:08:05;4.87;;;2.50;;
3993;SDS011;2011;48.238;13.948;2023-02-03T08:10:32;2.50;;;1.40;;
3993;SDS011;2011;48.238;13.948;2023-02-03T08:12:59;3.70;;;1.50;;
3993;SDS011;2011;48.238;13.948;2023-02-03T08:15:26;2.13;;;1.57;;
3993;SDS011;2011;48.238;13.948;2023-02-03T08:17:55;3.50;;;0.90;;
3993;SDS011;2011;48.238;13.948;2023-02-03T08:20:22;3.27;;;1.00;;
3993;SDS011;2011;48.238;13.948;2023-02-03T08:22:49;1.93;;;1.10;;
3993;SDS011;2011;48.238;13.948;2023-02-03T08:25:16;3.07;;;1.20;;
3993;SDS011;2011;48.238;13.948;2023-02-03T08:27:43;6.47;;;2.43;;
3993;SDS011;2011;48.238;13.948;2023-02-03T08:30:12;4.07;;;1.80;;
3993;SDS011;2011;48.238;13.948;2023-02-03T08:32:40;3.20;;;1.13;;
3993;SDS011;2011;48.238;13.948;2023-02-03T08:35:08;2.27;;;1.10;;
3993;SDS011;2011;48.238;13.948;2023-02-03T08:37:35;3.23;;;1.20;;
3993;SDS011;2011;48.238;13.948;2023-02-03T08:40:03;2.47;;;1.17;;
3993;SDS011;2011;48.238;13.948;2023-02-03T08:42:30;4.50;;;2.70;;
3993;SDS011;2011;48.238;13.948;2023-02-03T08:44:57;2.60;;;1.03;;
3993;SDS011;2011;48.238;13.948;2023-02-03T08:47:24;2.23;;;1.23;;
3993;SDS011;2011;48.238;13.948;2023-02-03T08:49:51;1.10;;;0.80;;
3993;SDS011;2011;48.238;13.948;2023-02-03T08:52:20;5.23;;;1.57;;
3993;SDS011;2011;48.238;13.948;2023-02-03T08:54:47;3.43;;;1.20;;
3993;SDS011;2011;48.238;13.948;2023-02-03T08:57:14;1.50;;;1.00;;
3993;SDS011;2011;48.238;13.948;2023-02-03T08:59:41;2.90;;;1.20;;
3993;SDS011;2011;48.238;13.948;2023-02-03T09:02:10;1.93;;;0.93;;
3993;SDS011;2011;48.238;13.948;2023-02-03T09:04:40;2.77;;;0.90;;
3993;SDS011;2011;48.238;13.948;2023-02-03T09:07:07;3.33;;;0.97;;
3993;SDS011;2011;48.238;13.948;2023-02-03T09:09:36;2.47;;;1.00;;
3993;SDS011;2011;48.238;13.948;2023-02-03T09:12:04;4.27;;;1.30;;
3993;SDS011;2011;48.238;13.948;2023-02-03T09:14:31;1.30;;;1.10;;
3993;SDS011;2011;48.238;13.948;2023-02-03T09:16:59;3.33;;;1.00;;
3993;SDS011;2011;48.238;13.948;2023-02-03T09:19:27;8.00;;;0.90;;
3993;SDS011;2011;48.238;13.948;2023-02-03T09:21:54;2.47;;;1.30;;
3993;SDS011;2011;48.238;13.948;2023-02-03T09:24:21;1.23;;;1.00;;
3993;SDS011;2011;48.238;13.948;2023-02-03T09:26:50;2.10;;;1.03;;
3993;SDS011;2011;48.238;13.948;2023-02-03T09:29:19;1.30;;;1.10;;
3993;SDS011;2011;48.238;13.948;2023-02-03T09:31:47;5.53;;;1.53;;
3993;SDS011;2011;48.238;13.948;2023-02-03T09:34:16;1.90;;;1.13;;
3993;SDS011;2011;48.238;13.948;2023-02-03T09:36:44;7.00;;;1.30;;
3993;SDS011;2011;48.238;13.948;2023-02-03T09:39:11;2.17;;;1.20;;
3993;SDS011;2011;48.238;13.948;2023-02-03T09:41:42;3.63;;;1.00;;
3993;SDS011;2011;48.238;13.948;2023-02-03T09:44:41;2.23;;;1.40;;
3993;SDS011;2011;48.238;13.948;2023-02-03T09:47:13;2.83;;;1.13;;
3993;SDS011;2011;48.238;13.948;2023-02-03T09:49:44;2.47;;;1.37;;
3993;SDS011;2011;48.238;13.948;2023-02-03T09:52:16;2.43;;;1.30;;
3993;SDS011;2011;48.238;13.948;2023-02-03T09:54:46;2.80;;;1.20;;
3993;SDS011;2011;48.238;13.948;2023-02-03T09:57:19;1.50;;;0.97;;
3993;SDS011;2011;48.238;13.948;2023-02-03T09:59:49;1.83;;;1.20;;
3993;SDS011;2011;48.238;13.948;2023-02-03T10:02:25;2.20;;;1.33;;
3993;SDS011;2011;48.238;13.948;2023-02-03T10:05:06;3.40;;;1.10;;
3993;SDS011;2011;48.238;13.948;2023-02-03T10:07:41;3.03;;;1.10;;
3993;SDS011;2011;48.238;13.948;2023-02-03T10:10:17;5.43;;;1.20;;
3993;SDS011;2011;48.238;13.948;2023-02-03T10:12:57;2.07;;;0.87;;
3993;SDS011;2011;48.238;13.948;2023-02-03T10:15:50;3.30;;;1.30;;
3993;SDS011;2011;48.238;13.948;2023-02-03T10:18:29;1.13;;;0.70;;
3993;SDS011;2011;48.238;13.948;2023-02-03T10:21:01;1.90;;;1.10;;
3993;SDS011;2011;48.238;13.948;2023-02-03T10:23:38;2.30;;;1.00;;
3993;SDS011;2011;48.238;13.948;2023-02-03T10:26:06;4.03;;;1.40;;
3993;SDS011;2011;48.238;13.948;2023-02-03T10:28:38;1.13;;;0.80;;
3993;SDS011;2011;48.238;13.948;2023-02-03T10:31:14;3.77;;;1.10;;
3993;SDS011;2011;48.238;13.948;2023-02-03T10:33:44;4.20;;;1.10;;
3993;SDS011;2011;48.238;13.948;2023-02-03T10:36:14;1.23;;;0.90;;
3993;SDS011;2011;48.238;13.948;2023-02-03T10:38:48;1.17;;;0.97;;
3993;SDS011;2011;48.238;13.948;2023-02-03T10:41:24;5.60;;;1.40;;
3993;SDS011;2011;48.238;13.948;2023-02-03T10:43:53;2.43;;;1.10;;
3993;SDS011;2011;48.238;13.948;2023-02-03T10:46:25;4.10;;;0.90;;
3993;SDS011;2011;48.238;13.948;2023-02-03T10:48:53;2.60;;;1.10;;
3993;SDS011;2011;48.238;13.948;2023-02-03T10:51:22;3.93;;;1.13;;
3993;SDS011;2011;48.238;13.948;2023-02-03T10:53:51;2.07;;;1.00;;
3993;SDS011;2011;48.238;13.948;2023-02-03T10:56:19;7.20;;;3.37;;
3993;SDS011;2011;48.238;13.948;2023-02-03T10:58:49;8.60;;;1.60;;
3993;SDS011;2011;48.238;13.948;2023-02-03T11:01:18;2.50;;;1.47;;
3993;SDS011;2011;48.238;13.948;2023-02-03T11:03:54;4.13;;;1.20;;
3993;SDS011;2011;48.238;13.948;2023-02-03T11:06:24;3.17;;;1.67;;
3993;SDS011;2011;48.238;13.948;2023-02-03T11:08:51;4.33;;;1.47;;
3993;SDS011;2011;48.238;13.948;2023-02-03T11:11:20;3.87;;;1.47;;
3993;SDS011;2011;48.238;13.948;2023-02-03T11:13:52;1.97;;;1.10;;
3993;SDS011;2011;48.238;13.948;2023-02-03T11:16:21;4.17;;;1.10;;
3993;SDS011;2011;48.238;13.948;2023-02-03T11:18:51;3.00;;;1.20;;
3993;SDS011;2011;48.238;13.948;2023-02-03T11:21:21;2.77;;;1.17;;
3993;SDS011;2011;48.238;13.948;2023-02-03T11:23:56;2.10;;;1.03;;
3993;SDS011;2011;48.238;13.948;2023-02-03T11:26:29;2.90;;;1.00;;
3993;SDS011;2011;48.238;13.948;2023-02-03T11:28:59;5.97;;;1.10;;
3993;SDS011;2011;48.238;13.948;2023-02-03T11:31:31;1.20;;;0.83;;
3993;SDS011;2011;48.238;13.948;2023-02-03T11:34:01;1.90;;;1.20;;
3993;SDS011;2011;48.238;13.948;2023-02-03T11:36:31;2.70;;;1.30;;
3993;SDS011;2011;48.238;13.948;2023-02-03T11:41:46;1.90;;;1.10;;
3993;SDS011;2011;48.238;13.948;2023-02-03T11:44:18;2.43;;;1.20;;
3993;SDS011;2011;48.238;13.948;2023-02-03T11:46:49;3.37;;;0.87;;
3993;SDS011;2011;48.238;13.948;2023-02-03T11:49:25;1.97;;;1.30;;
3993;SDS011;2011;48.238;13.948;2023-02-03T11:52:18;5.93;;;1.37;;
3993;SDS011;2011;48.238;13.948;2023-02-03T11:55:11;3.10;;;1.17;;
3993;SDS011;2011;48.238;13.948;2023-02-03T11:57:49;1.80;;;1.10;;
3993;SDS011;2011;48.238;13.948;2023-02-03T12:00:28;2.60;;;1.10;;
3993;SDS011;2011;48.238;13.948;2023-02-03T12:03:05;1.17;;;0.90;;
3993;SDS011;2011;48.238;13.948;2023-02-03T12:05:54;5.97;;;1.60;;
3993;SDS011;2011;48.238;13.948;2023-02-03T12:08:32;1.00;;;0.90;;
3993;SDS011;2011;48.238;13.948;2023-02-03T12:11:08;1.47;;;0.93;;
3993;SDS011;2011;48.238;13.948;2023-02-03T12:17:05;3.50;;;1.40;;
3993;SDS011;2011;48.238;13.948;2023-02-03T12:20:04;3.77;;;1.17;;
3993;SDS011;2011;48.238;13.948;2023-02-03T12:22:45;3.50;;;1.10;;
3993;SDS011;2011;48.238;13.948;2023-02-03T12:25:27;8.50;;;2.53;;
3993;SDS011;2011;48.238;13.948;2023-02-03T12:28:03;4.27;;;2.30;;
3993;SDS011;2011;48.238;13.948;2023-02-03T12:30:40;7.97;;;2.03;;
3993;SDS011;2011;48.238;13.948;2023-02-03T12:33:12;3.40;;;1.67;;
3993;SDS011;2011;48.238;13.948;2023-02-03T12:35:46;3.77;;;1.37;;
3993;SDS011;2011;48.238;13.948;2023-02-03T12:38:20;4.67;;;1.60;;
3993;SDS011;2011;48.238;13.948;2023-02-03T12:40:57;2.90;;;1.30;;
3993;SDS011;2011;48.238;13.948;2023-02-03T12:43:26;5.63;;;1.60;;
3993;SDS011;2011;48.238;13.948;2023-02-03T12:46:02;2.00;;;1.13;;
3993;SDS011;2011;48.238;13.948;2023-02-03T12:48:41;2.23;;;0.93;;
3993;SDS011;2011;48.238;13.948;2023-02-03T12:51:17;9.83;;;1.43;;
3993;SDS011;2011;48.238;13.948;2023-02-03T12:53:53;1.60;;;0.90;;
3993;SDS011;2011;48.238;13.948;2023-02-03T12:56:25;1.57;;;0.90;;
3993;SDS011;2011;48.238;13.948;2023-02-03T12:58:59;1.73;;;1.20;;
3993;SDS011;2011;48.238;13.948;2023-02-03T13:01:31;2.50;;;1.10;;
3993;SDS011;2011;48.238;13.948;2023-02-03T13:04:04;5.43;;;1.60;;
3993;SDS011;2011;48.238;13.948;2023-02-03T13:06:40;2.80;;;1.10;;
3993;SDS011;2011;48.238;13.948;2023-02-03T13:09:21;2.90;;;1.07;;
3993;SDS011;2011;48.238;13.948;2023-02-03T13:11:55;1.50;;;1.10;;
3993;SDS011;2011;48.238;13.948;2023-02-03T13:14:30;2.23;;;1.00;;
3993;SDS011;2011;48.238;13.948;2023-02-03T13:17:03;4.00;;;1.10;;
3993;SDS011;2011;48.238;13.948;2023-02-03T13:19:37;2.90;;;1.10;;
3993;SDS011;2011;48.238;13.948;2023-02-03T13:22:11;2.67;;;1.07;;
3993;SDS011;2011;48.238;13.948;2023-02-03T13:24:39;0.97;;;0.77;;
3993;SDS011;2011;48.238;13.948;2023-02-03T13:27:22;3.73;;;0.90;;
3993;SDS011;2011;48.238;13.948;2023-02-03T13:30:16;2.03;;;0.90;;
3993;SDS011;2011;48.238;13.948;2023-02-03T13:36:28;2.53;;;1.13;;
3993;SDS011;2011;48.238;13.948;2023-02-03T13:39:16;2.63;;;1.13;;
3993;SDS011;2011;48.238;13.948;2023-02-03T13:41:55;1.40;;;0.90;;
3993;SDS011;2011;48.238;13.948;2023-02-03T13:44:36;1.53;;;0.90;;
3993;SDS011;2011;48.238;13.948;2023-02-03T13:47:05;1.30;;;0.90;;
3993;SDS011;2011;48.238;13.948;2023-02-03T13:49:41;2.60;;;1.10;;
3993;SDS011;2011;48.238;13.948;2023-02-03T13:52:28;1.80;;;1.23;;
3993;SDS011;2011;48.238;13.948;2023-02-03T13:55:03;2.10;;;0.87;;
3993;SDS011;2011;48.238;13.948;2023-02-03T13:57:32;1.10;;;0.97;;
3993;SDS011;2011;48.238;13.948;2023-02-03T14:00:02;1.80;;;1.10;;
3993;SDS011;2011;48.238;13.948;2023-02-03T14:02:43;2.27;;;1.10;;
3993;SDS011;2011;48.238;13.948;2023-02-03T14:20:40;1.47;;;0.83;;
3993;SDS011;2011;48.238;13.948;2023-02-03T14:23:18;4.80;;;1.00;;
3993;SDS011;2011;48.238;13.948;2023-02-03T14:25:50;1.03;;;0.87;;
3993;SDS011;2011;48.238;13.948;2023-02-03T14:28:22;2.93;;;1.10;;
3993;SDS011;2011;48.238;13.948;2023-02-03T14:31:07;2.80;;;1.40;;
3993;SDS011;2011;48.238;13.948;2023-02-03T14:36:34;1.53;;;0.83;;
3993;SDS011;2011;48.238;13.948;2023-02-03T14:42:22;3.27;;;1.10;;
3993;SDS011;2011;48.238;13.948;2023-02-03T14:45:05;6.30;;;0.90;;
3993;SDS011;2011;48.238;13.948;2023-02-03T14:47:47;1.20;;;0.97;;
3993;SDS011;2011;48.238;13.948;2023-02-03T14:50:32;2.27;;;0.97;;
3993;SDS011;2011;48.238;13.948;2023-02-03T14:53:14;1.63;;;1.03;;
3993;SDS011;2011;48.238;13.948;2023-02-03T14:55:51;1.00;;;0.90;;
3993;SDS011;2011;48.238;13.948;2023-02-03T14:58:26;2.20;;;0.93;;
3993;SDS011;2011;48.238;13.948;2023-02-03T15:00:57;2.73;;;1.00;;
3993;SDS011;2011;48.238;13.948;2023-02-03T15:03:25;3.00;;;1.00;;
3993;SDS011;2011;48.238;13.948;2023-02-03T15:05:56;14.70;;;0.90;;
3993;SDS011;2011;48.238;13.948;2023-02-03T15:08:32;2.17;;;0.90;;
3993;SDS011;2011;48.238;13.948;2023-02-03T15:11:13;3.20;;;1.13;;
3993;SDS011;2011;48.238;13.948;2023-02-03T15:13:51;1.47;;;0.80;;
3993;SDS011;2011;48.238;13.948;2023-02-03T15:16:20;1.33;;;0.70;;
3993;SDS011;2011;48.238;13.948;2023-02-03T15:18:54;4.00;;;1.10;;
3993;SDS011;2011;48.238;13.948;2023-02-03T15:21:22;1.30;;;0.70;;
3993;SDS011;2011;48.238;13.948;2023-02-03T15:23:50;1.50;;;0.80;;
3993;SDS011;2011;48.238;13.948;2023-02-03T15:26:17;2.20;;;1.00;;
3993;SDS011;2011;48.238;13.948;2023-02-03T15:28:54;1.20;;;0.90;;
3993;SDS011;2011;48.238;13.948;2023-02-03T15:31:25;1.70;;;1.07;;
3993;SDS011;2011;48.238;13.948;2023-02-03T15:34:00;5.10;;;1.10;;
3993;SDS011;2011;48.238;13.948;2023-02-03T15:36:34;1.37;;;1.07;;
3993;SDS011;2011;48.238;13.948;2023-02-03T15:39:13;1.77;;;1.10;;
3993;SDS011;2011;48.238;13.948;2023-02-03T15:41:45;2.50;;;1.10;;
3993;SDS011;2011;48.238;13.948;2023-02-03T15:44:17;1.87;;;1.00;;
3993;SDS011;2011;48.238;13.948;2023-02-03T15:46:52;2.73;;;1.17;;
3993;SDS011;2011;48.238;13.948;2023-02-03T15:49:21;1.50;;;1.00;;
3993;SDS011;2011;48.238;13.948;2023-02-03T15:51:53;2.13;;;1.10;;
3993;SDS011;2011;48.238;13.948;2023-02-03T15:54:24;2.40;;;0.97;;
3993;SDS011;2011;48.238;13.948;2023-02-03T15:56:58;2.43;;;0.80;;
3993;SDS011;2011;48.238;13.948;2023-02-03T15:59:30;2.27;;;1.07;;
3993;SDS011;2011;48.238;13.948;2023-02-03T16:02:01;1.90;;;1.30;;
3993;SDS011;2011;48.238;13.948;2023-02-03T16:04:38;4.97;;;1.30;;
3993;SDS011;2011;48.238;13.948;2023-02-03T16:07:05;3.43;;;1.10;;